createdAt,value
2022-12-29T00:00:05.436Z,2.37
2022-12-29T00:02:32.041Z,1.70
2022-12-29T00:04:58.562Z,1.40
2022-12-29T00:07:25.036Z,1.27
2022-12-29T00:09:51.503Z,1.67
2022-12-29T00:12:17.972Z,1.10
2022-12-29T00:15:03.179Z,1.00
2022-12-29T00:17:29.685Z,1.40
2022-12-29T00:20:14.932Z,1.17
2022-12-29T00:22:59.814Z,1.43
2022-12-29T00:25:45.051Z,1.90
2022-12-29T00:28:30.224Z,2.40
2022-12-29T00:31:19.334Z,3.23
2022-12-29T00:34:04.673Z,1.00
2022-12-29T00:36:34.355Z,1.10
2022-12-29T00:39:22.477Z,2.13
2022-12-29T00:42:08.347Z,1.53
2022-12-29T00:44:34.858Z,1.43
2022-12-29T00:47:05.395Z,0.90
2022-12-29T00:49:32.657Z,1.90
2022-12-29T00:52:08.631Z,1.00
2022-12-29T00:54:37.391Z,1.57
2022-12-29T00:57:05.082Z,1.33
2022-12-29T00:59:31.926Z,1.30
2022-12-29T01:01:59.086Z,0.80
2022-12-29T01:04:26.844Z,0.80
2022-12-29T01:06:54.602Z,1.20
2022-12-29T01:09:40.357Z,0.70
2022-12-29T01:12:07.930Z,0.80
2022-12-29T01:14:34.471Z,0.80
2022-12-29T01:17:00.933Z,2.17
2022-12-29T01:19:27.625Z,1.20
2022-12-29T01:21:54.220Z,1.00
2022-12-29T01:24:21.256Z,1.53
2022-12-29T01:26:48.034Z,0.80
2022-12-29T01:29:14.598Z,1.63
2022-12-29T01:31:41.328Z,1.33
2022-12-29T01:34:08.198Z,0.80
2022-12-29T01:36:34.776Z,1.40
2022-12-29T01:39:01.404Z,2.37
2022-12-29T01:41:28.229Z,0.70
2022-12-29T01:44:00.153Z,1.47
2022-12-29T01:46:35.315Z,1.90
2022-12-29T01:49:23.350Z,1.57
2022-12-29T01:52:08.991Z,0.73
2022-12-29T01:54:43.061Z,0.70
2022-12-29T01:57:13.088Z,1.17
2022-12-29T02:00:04.429Z,0.70
2022-12-29T02:02:33.533Z,0.80
2022-12-29T02:05:04.899Z,0.77
2022-12-29T02:07:32.405Z,0.80
2022-12-29T02:09:59.143Z,0.80
2022-12-29T02:12:25.949Z,0.80
2022-12-29T02:14:56.698Z,1.47
2022-12-29T02:17:47.461Z,0.80
2022-12-29T02:20:29.170Z,0.70
2022-12-29T02:23:17.526Z,0.80
2022-12-29T02:26:03.554Z,2.93
2022-12-29T02:28:53.855Z,0.70
2022-12-29T02:31:29.508Z,0.70
2022-12-29T02:33:55.978Z,0.73
2022-12-29T02:36:40.850Z,0.70
2022-12-29T02:39:13.433Z,0.70
2022-12-29T02:42:03.540Z,0.60
2022-12-29T02:44:40.898Z,0.70
2022-12-29T02:47:17.054Z,0.70
2022-12-29T02:49:55.059Z,0.73
2022-12-29T02:52:26.722Z,1.87
2022-12-29T02:54:55.198Z,1.20
2022-12-29T02:57:21.636Z,4.50
2022-12-29T02:59:52.239Z,0.63
2022-12-29T03:02:27.987Z,0.80
2022-12-29T03:05:23.938Z,0.90
2022-12-29T03:08:05.806Z,0.70
2022-12-29T03:10:51.016Z,1.83
2022-12-29T03:13:45.455Z,1.90
2022-12-29T03:16:20.149Z,9.47
2022-12-29T03:18:52.637Z,0.73
2022-12-29T03:21:49.196Z,0.70
2022-12-29T03:24:17.937Z,1.30
2022-12-29T03:26:47.080Z,0.80
2022-12-29T03:29:15.135Z,2.27
2022-12-29T03:31:42.491Z,1.30
2022-12-29T03:34:09.423Z,0.80
2022-12-29T03:37:04.014Z,0.90
2022-12-29T03:39:30.483Z,1.30
2022-12-29T03:42:02.634Z,1.27
2022-12-29T03:44:37.301Z,1.07
2022-12-29T03:47:04.864Z,1.23
2022-12-29T03:49:31.366Z,0.80
2022-12-29T03:51:58.032Z,0.80
2022-12-29T03:54:24.636Z,0.90
2022-12-29T03:56:51.242Z,1.67
2022-12-29T03:59:17.791Z,1.43
2022-12-29T04:01:45.207Z,2.90
2022-12-29T04:04:12.018Z,1.20
2022-12-29T04:06:38.502Z,0.70
2022-12-29T04:09:04.967Z,2.77
2022-12-29T04:11:33.221Z,1.63
2022-12-29T04:14:01.021Z,2.40
2022-12-29T04:16:27.521Z,3.30
2022-12-29T04:18:54.047Z,1.20
2022-12-29T04:21:20.608Z,1.13
2022-12-29T04:23:47.120Z,1.30
2022-12-29T04:26:13.976Z,1.00
2022-12-29T04:28:41.114Z,0.83
2022-12-29T04:31:07.981Z,1.07
2022-12-29T04:33:34.851Z,0.83
2022-12-29T04:36:01.301Z,1.00
2022-12-29T04:38:28.096Z,1.13
2022-12-29T04:40:54.628Z,0.77
2022-12-29T04:43:22.652Z,0.90
2022-12-29T04:45:49.395Z,2.30
2022-12-29T04:48:15.952Z,1.47
2022-12-29T04:50:42.809Z,1.40
2022-12-29T04:53:09.679Z,0.80
2022-12-29T04:55:36.186Z,1.90
2022-12-29T04:58:02.679Z,0.70
2022-12-29T05:00:29.257Z,0.97
2022-12-29T05:02:56.337Z,1.67
2022-12-29T05:05:23.436Z,1.27
2022-12-29T05:07:49.966Z,2.10
2022-12-29T05:10:16.546Z,1.37
2022-12-29T05:12:45.230Z,1.07
2022-12-29T05:15:12.415Z,1.60
2022-12-29T05:17:38.928Z,1.47
2022-12-29T05:20:06.630Z,0.97
2022-12-29T05:22:33.172Z,2.30
2022-12-29T05:24:59.616Z,0.90
2022-12-29T05:27:26.452Z,1.10
2022-12-29T05:29:53.007Z,1.43
2022-12-29T05:32:19.576Z,1.20
2022-12-29T05:34:46.025Z,3.20
2022-12-29T05:37:12.482Z,1.00
2022-12-29T05:39:39.158Z,4.10
2022-12-29T05:42:05.655Z,1.33
2022-12-29T05:44:32.125Z,1.40
2022-12-29T05:46:58.630Z,2.40
2022-12-29T05:49:25.193Z,1.63
2022-12-29T05:51:51.654Z,1.40
2022-12-29T05:54:18.114Z,1.00
2022-12-29T05:56:45.113Z,2.07
2022-12-29T05:59:11.595Z,1.20
2022-12-29T06:01:38.286Z,1.10
2022-12-29T06:04:04.873Z,1.10
2022-12-29T06:06:31.370Z,3.23
2022-12-29T06:08:58.255Z,0.80
2022-12-29T06:11:24.711Z,1.57
2022-12-29T06:13:51.363Z,0.90
2022-12-29T06:16:18.089Z,1.90
2022-12-29T06:18:44.616Z,2.03
2022-12-29T06:21:11.144Z,1.00
2022-12-29T06:23:37.678Z,2.30
2022-12-29T06:26:04.496Z,1.33
2022-12-29T06:28:30.943Z,1.43
2022-12-29T06:30:58.411Z,1.17
2022-12-29T06:33:24.967Z,1.73
2022-12-29T06:35:51.470Z,2.20
2022-12-29T06:38:18.167Z,3.20
2022-12-29T06:40:46.060Z,1.13
2022-12-29T06:43:12.931Z,1.27
2022-12-29T06:45:41.131Z,1.40
2022-12-29T06:48:08.313Z,1.77
2022-12-29T06:50:35.009Z,1.83
2022-12-29T06:53:01.491Z,1.03
2022-12-29T06:55:29.160Z,1.63
2022-12-29T06:57:57.167Z,2.00
2022-12-29T07:00:24.531Z,3.90
2022-12-29T07:02:51.356Z,3.20
2022-12-29T07:05:17.972Z,1.07
2022-12-29T07:07:44.689Z,1.83
2022-12-29T07:10:11.315Z,2.00
2022-12-29T07:12:38.000Z,1.20
2022-12-29T07:15:04.722Z,1.00
2022-12-29T07:17:31.191Z,2.00
2022-12-29T07:19:57.645Z,4.40
2022-12-29T07:22:24.219Z,1.07
2022-12-29T07:24:50.736Z,6.30
2022-12-29T07:27:17.182Z,1.00
2022-12-29T07:29:43.816Z,1.23
2022-12-29T07:32:10.299Z,1.93
2022-12-29T07:34:36.754Z,1.37
2022-12-29T07:37:03.199Z,2.93
2022-12-29T07:39:29.626Z,1.73
2022-12-29T07:42:02.669Z,2.07
2022-12-29T07:44:31.184Z,1.70
2022-12-29T07:46:58.966Z,1.17
2022-12-29T07:49:25.882Z,4.33
2022-12-29T07:51:53.798Z,3.73
2022-12-29T07:54:20.469Z,1.23
2022-12-29T07:56:47.195Z,3.00
2022-12-29T07:59:13.665Z,2.90
2022-12-29T08:01:40.348Z,5.57
2022-12-29T08:04:07.202Z,2.23
2022-12-29T08:06:33.909Z,3.63
2022-12-29T08:09:09.867Z,1.73
2022-12-29T08:11:38.076Z,1.50
2022-12-29T08:14:05.089Z,2.17
2022-12-29T08:16:31.955Z,1.50
2022-12-29T08:18:58.421Z,2.30
2022-12-29T08:21:24.943Z,2.40
2022-12-29T08:23:51.487Z,6.20
2022-12-29T08:26:17.988Z,3.43
2022-12-29T08:28:45.325Z,2.23
2022-12-29T08:31:12.051Z,3.90
2022-12-29T08:33:39.575Z,3.83
2022-12-29T08:36:07.714Z,2.63
2022-12-29T08:38:34.552Z,4.60
2022-12-29T08:41:03.915Z,1.30
2022-12-29T08:43:30.489Z,1.83
2022-12-29T08:45:59.231Z,2.20
2022-12-29T08:48:26.934Z,2.27
2022-12-29T08:50:53.898Z,1.77
2022-12-29T08:53:20.473Z,2.70
2022-12-29T08:55:47.567Z,4.57
2022-12-29T08:58:15.561Z,1.90
2022-12-29T09:00:43.162Z,3.80
2022-12-29T09:03:10.024Z,2.80
2022-12-29T09:05:36.795Z,3.30
2022-12-29T09:08:03.927Z,8.03
2022-12-29T09:10:30.477Z,4.83
2022-12-29T09:12:56.996Z,5.47
2022-12-29T09:15:23.470Z,4.23
2022-12-29T09:17:49.993Z,2.00
2022-12-29T09:20:19.104Z,2.70
2022-12-29T09:22:46.885Z,4.57
2022-12-29T09:25:14.164Z,4.70
2022-12-29T09:27:41.168Z,4.47
2022-12-29T09:30:10.307Z,2.00
2022-12-29T09:32:41.991Z,3.50
2022-12-29T09:35:11.285Z,7.30
2022-12-29T09:37:37.795Z,2.30
2022-12-29T09:40:05.396Z,1.90
2022-12-29T09:43:00.240Z,5.17
2022-12-29T09:45:45.899Z,4.27
2022-12-29T09:48:19.616Z,4.00
2022-12-29T09:50:51.058Z,2.60
2022-12-29T09:53:34.389Z,3.67
2022-12-29T09:56:02.463Z,2.87
2022-12-29T09:58:46.089Z,2.63
2022-12-29T10:01:20.655Z,2.37
2022-12-29T10:03:52.796Z,2.60
2022-12-29T10:06:56.212Z,4.10
2022-12-29T10:09:32.315Z,3.23
2022-12-29T10:12:20.042Z,4.60
2022-12-29T10:15:11.472Z,4.27
2022-12-29T10:17:49.738Z,3.33
2022-12-29T10:20:36.154Z,4.70
2022-12-29T10:23:27.648Z,3.63
2022-12-29T10:25:58.706Z,2.00
2022-12-29T10:28:39.256Z,3.10
2022-12-29T10:31:22.276Z,2.60
2022-12-29T10:33:53.329Z,2.57
2022-12-29T10:36:43.000Z,2.07
2022-12-29T10:39:21.736Z,3.40
2022-12-29T10:41:52.765Z,2.37
2022-12-29T10:44:21.222Z,1.53
2022-12-29T10:46:56.706Z,3.23
2022-12-29T10:49:26.254Z,1.60
2022-12-29T10:51:56.216Z,3.67
2022-12-29T10:54:31.332Z,2.00
2022-12-29T10:57:11.853Z,4.40
2022-12-29T10:59:38.697Z,4.23
2022-12-29T11:02:11.418Z,4.40
2022-12-29T11:04:56.417Z,7.63
2022-12-29T11:07:27.046Z,2.93
2022-12-29T11:09:54.232Z,2.90
2022-12-29T11:12:22.340Z,5.37
2022-12-29T11:14:49.164Z,5.77
2022-12-29T11:17:18.012Z,3.30
2022-12-29T11:19:44.626Z,6.30
2022-12-29T11:22:29.221Z,5.40
2022-12-29T11:25:07.412Z,6.03
2022-12-29T11:27:33.940Z,3.23
2022-12-29T11:30:00.401Z,7.33
2022-12-29T11:32:30.628Z,2.80
2022-12-29T11:34:58.796Z,2.17
2022-12-29T11:37:31.523Z,4.70
2022-12-29T11:40:17.034Z,2.70
2022-12-29T11:42:55.527Z,7.63
2022-12-29T11:45:24.373Z,4.67
2022-12-29T11:47:54.515Z,3.33
2022-12-29T11:50:27.388Z,4.27
2022-12-29T11:53:00.242Z,1.87
2022-12-29T11:55:28.189Z,1.87
2022-12-29T11:57:56.810Z,2.83
2022-12-29T12:00:28.213Z,4.07
2022-12-29T12:03:00.254Z,7.70
2022-12-29T12:05:54.261Z,2.80
2022-12-29T12:08:45.174Z,5.80
2022-12-29T12:11:16.330Z,5.53
2022-12-29T12:14:00.106Z,4.00
2022-12-29T12:16:51.035Z,6.30
2022-12-29T12:19:40.866Z,12.07
2022-12-29T12:22:18.834Z,4.77
2022-12-29T12:24:59.349Z,5.33
2022-12-29T12:27:30.100Z,4.90
2022-12-29T12:30:04.810Z,4.73
2022-12-29T12:32:45.266Z,3.20
2022-12-29T12:35:19.728Z,10.07
2022-12-29T12:38:20.552Z,3.03
2022-12-29T12:41:08.058Z,3.10
2022-12-29T12:44:07.889Z,3.07
2022-12-29T12:47:00.784Z,3.90
2022-12-29T12:49:54.822Z,3.67
2022-12-29T12:52:40.995Z,3.90
2022-12-29T12:55:39.957Z,3.33
2022-12-29T12:58:18.925Z,3.20
2022-12-29T13:01:18.835Z,3.70
2022-12-29T13:04:20.845Z,7.33
2022-12-29T13:07:27.823Z,3.23
2022-12-29T13:10:09.861Z,3.20
2022-12-29T13:13:03.876Z,4.53
2022-12-29T13:15:52.151Z,2.70
2022-12-29T13:18:54.361Z,2.20
2022-12-29T13:21:29.269Z,3.00
2022-12-29T13:24:07.626Z,4.43
2022-12-29T13:26:36.602Z,6.17
2022-12-29T13:29:12.237Z,5.90
2022-12-29T13:31:49.202Z,3.60
2022-12-29T13:35:09.196Z,6.47
2022-12-29T13:37:51.285Z,5.30
2022-12-29T13:40:20.378Z,5.50
2022-12-29T13:42:47.389Z,4.30
2022-12-29T13:45:22.625Z,3.13
2022-12-29T13:48:10.763Z,5.40
2022-12-29T13:50:39.477Z,4.10
2022-12-29T13:53:16.469Z,5.63
2022-12-29T13:55:42.981Z,4.60
2022-12-29T13:58:24.674Z,6.30
2022-12-29T14:01:09.324Z,5.93
2022-12-29T14:03:51.444Z,6.70
2022-12-29T14:06:28.089Z,4.20
2022-12-29T14:08:58.048Z,3.33
2022-12-29T14:11:34.081Z,4.83
2022-12-29T14:14:12.735Z,6.03
2022-12-29T14:16:39.451Z,3.90
2022-12-29T14:19:11.949Z,5.10
2022-12-29T14:21:38.855Z,6.43
2022-12-29T14:24:36.388Z,8.90
2022-12-29T14:27:11.909Z,7.97
2022-12-29T14:29:41.300Z,3.80
2022-12-29T14:32:33.883Z,4.87
2022-12-29T14:35:02.203Z,6.00
2022-12-29T14:37:36.264Z,6.00
2022-12-29T14:40:23.918Z,3.23
2022-12-29T14:42:51.475Z,4.20
2022-12-29T14:45:17.936Z,2.57
2022-12-29T14:47:46.428Z,8.23
2022-12-29T14:50:22.116Z,5.20
2022-12-29T14:53:02.427Z,5.83
2022-12-29T14:55:41.572Z,7.03
2022-12-29T14:58:16.251Z,10.87
2022-12-29T15:00:43.412Z,7.50
2022-12-29T15:03:25.243Z,6.73
2022-12-29T15:05:54.470Z,5.13
2022-12-29T15:08:24.753Z,3.53
2022-12-29T15:10:55.266Z,3.40
2022-12-29T15:13:33.725Z,5.53
2022-12-29T15:16:00.249Z,4.17
2022-12-29T15:18:32.666Z,4.43
2022-12-29T15:21:01.687Z,3.97
2022-12-29T15:23:29.314Z,7.37
2022-12-29T15:26:06.108Z,3.73
2022-12-29T15:28:40.048Z,5.13
2022-12-29T15:31:11.987Z,5.53
2022-12-29T15:33:41.664Z,2.10
2022-12-29T15:36:13.880Z,2.97
2022-12-29T15:38:40.934Z,2.33
2022-12-29T15:41:55.049Z,4.03
2022-12-29T15:44:25.132Z,3.73
2022-12-29T15:46:51.872Z,1.50
2022-12-29T15:49:18.726Z,3.93
2022-12-29T15:51:45.223Z,3.93
2022-12-29T15:54:19.142Z,3.13
2022-12-29T15:56:45.912Z,3.40
2022-12-29T15:59:24.849Z,3.67
2022-12-29T16:01:52.042Z,6.80
2022-12-29T16:04:18.766Z,3.83
2022-12-29T16:06:55.427Z,3.53
2022-12-29T16:09:34.882Z,3.17
2022-12-29T16:12:05.197Z,6.30
2022-12-29T16:14:47.353Z,2.43
2022-12-29T16:17:20.514Z,4.93
2022-12-29T16:19:52.745Z,3.10
2022-12-29T16:22:31.205Z,4.07
2022-12-29T16:25:04.178Z,4.57
2022-12-29T16:27:39.124Z,3.00
2022-12-29T16:30:13.982Z,4.97
2022-12-29T16:32:47.623Z,3.00
2022-12-29T16:35:25.272Z,2.17
2022-12-29T16:38:25.396Z,4.63
2022-12-29T16:40:53.676Z,4.30
2022-12-29T16:43:43.354Z,2.53
2022-12-29T16:46:30.379Z,3.53
2022-12-29T16:48:57.588Z,5.40
2022-12-29T16:51:39.005Z,3.90
2022-12-29T16:54:05.742Z,6.20
2022-12-29T16:56:37.184Z,5.33
2022-12-29T16:59:22.239Z,3.50
2022-12-29T17:01:48.863Z,4.83
2022-12-29T17:04:15.434Z,3.53
2022-12-29T17:06:42.224Z,4.07
2022-12-29T17:09:19.277Z,4.00
2022-12-29T17:12:01.524Z,1.93
2022-12-29T17:14:43.689Z,7.00
2022-12-29T17:17:16.499Z,4.50
2022-12-29T17:19:47.030Z,4.90
2022-12-29T17:22:20.731Z,5.63
2022-12-29T17:24:47.305Z,5.00
2022-12-29T17:27:25.919Z,6.03
2022-12-29T17:29:53.973Z,4.97
2022-12-29T17:32:20.474Z,8.10
2022-12-29T17:34:47.053Z,5.40
2022-12-29T17:37:29.961Z,9.03
2022-12-29T17:39:56.463Z,13.00
2022-12-29T17:42:23.144Z,8.17
2022-12-29T17:44:49.703Z,5.93
2022-12-29T17:47:16.696Z,5.07
2022-12-29T17:49:46.196Z,6.17
2022-12-29T17:52:14.717Z,10.47
2022-12-29T17:54:45.838Z,6.60
2022-12-29T17:57:14.438Z,5.53
2022-12-29T17:59:41.365Z,11.43
2022-12-29T18:02:25.088Z,6.90
2022-12-29T18:04:53.043Z,5.37
2022-12-29T18:07:19.587Z,3.30
2022-12-29T18:09:46.033Z,5.77
2022-12-29T18:12:28.391Z,4.77
2022-12-29T18:14:55.314Z,2.53
2022-12-29T18:17:21.872Z,3.70
2022-12-29T18:19:50.543Z,3.90
2022-12-29T18:22:17.000Z,2.50
2022-12-29T18:24:44.082Z,3.63
2022-12-29T18:27:14.585Z,2.87
2022-12-29T18:29:41.308Z,4.00
2022-12-29T18:32:15.323Z,4.97
2022-12-29T18:34:42.508Z,2.00
2022-12-29T18:37:09.785Z,2.73
2022-12-29T18:39:37.180Z,8.60
2022-12-29T18:42:05.105Z,1.90
2022-12-29T18:44:31.541Z,5.20
2022-12-29T18:46:58.192Z,2.90
2022-12-29T18:49:25.483Z,2.60
2022-12-29T18:51:52.216Z,8.10
2022-12-29T18:54:27.198Z,3.13
2022-12-29T18:56:53.919Z,4.17
2022-12-29T18:59:20.698Z,6.53
2022-12-29T19:01:47.408Z,3.70
2022-12-29T19:04:14.480Z,3.50
2022-12-29T19:06:41.586Z,5.50
2022-12-29T19:09:08.141Z,6.33
2022-12-29T19:11:34.746Z,6.17
2022-12-29T19:14:01.293Z,9.07
2022-12-29T19:16:27.853Z,7.27
2022-12-29T19:19:08.295Z,3.50
2022-12-29T19:21:36.853Z,3.93
2022-12-29T19:24:04.150Z,5.67
2022-12-29T19:26:36.489Z,8.83
2022-12-29T19:29:04.967Z,7.50
2022-12-29T19:31:31.627Z,6.63
2022-12-29T19:33:58.290Z,5.10
2022-12-29T19:36:24.777Z,7.53
2022-12-29T19:38:51.257Z,8.13
2022-12-29T19:41:17.874Z,13.20
2022-12-29T19:43:44.366Z,13.07
2022-12-29T19:46:16.077Z,9.83
2022-12-29T19:48:42.790Z,12.00
2022-12-29T19:51:11.750Z,6.67
2022-12-29T19:53:38.320Z,11.90
2022-12-29T19:56:07.125Z,7.03
2022-12-29T19:58:35.589Z,10.73
2022-12-29T20:01:11.385Z,8.13
2022-12-29T20:03:38.605Z,9.47
2022-12-29T20:06:06.611Z,9.33
2022-12-29T20:08:34.213Z,5.97
2022-12-29T20:11:06.234Z,8.00
2022-12-29T20:13:34.055Z,9.23
2022-12-29T20:16:02.382Z,6.53
2022-12-29T20:18:29.655Z,16.53
2022-12-29T20:21:23.532Z,8.60
2022-12-29T20:23:51.582Z,11.37
2022-12-29T20:26:21.156Z,9.33
2022-12-29T20:28:47.881Z,11.67
2022-12-29T20:31:24.215Z,10.97
2022-12-29T20:33:51.056Z,8.93
2022-12-29T20:36:21.892Z,8.77
2022-12-29T20:38:49.414Z,7.07
2022-12-29T20:41:16.693Z,10.50
2022-12-29T20:43:43.782Z,9.90
2022-12-29T20:46:11.250Z,13.27
2022-12-29T20:48:38.038Z,8.30
2022-12-29T20:51:04.866Z,6.53
2022-12-29T20:53:33.328Z,7.17
2022-12-29T20:56:05.687Z,10.10
2022-12-29T20:58:32.426Z,3.73
2022-12-29T21:01:07.682Z,12.47
2022-12-29T21:03:34.590Z,11.10
2022-12-29T21:06:01.166Z,9.00
2022-12-29T21:08:29.960Z,11.63
2022-12-29T21:10:57.064Z,12.33
2022-12-29T21:13:23.614Z,7.83
2022-12-29T21:15:56.794Z,11.40
2022-12-29T21:18:23.290Z,7.30
2022-12-29T21:21:00.158Z,5.77
2022-12-29T21:23:27.374Z,13.77
2022-12-29T21:25:54.720Z,9.03
2022-12-29T21:28:22.062Z,8.97
2022-12-29T21:30:49.486Z,4.80
2022-12-29T21:33:20.250Z,9.93
2022-12-29T21:35:48.405Z,5.67
2022-12-29T21:38:15.083Z,8.67
2022-12-29T21:40:41.538Z,7.60
2022-12-29T21:43:09.457Z,9.40
2022-12-29T21:45:36.061Z,8.47
2022-12-29T21:48:24.339Z,6.93
2022-12-29T21:51:26.967Z,8.23
2022-12-29T21:54:19.665Z,12.37
2022-12-29T21:56:47.125Z,15.40
2022-12-29T21:59:33.206Z,11.50
2022-12-29T22:02:19.225Z,15.57
2022-12-29T22:05:04.721Z,11.23
2022-12-29T22:07:49.772Z,15.43
2022-12-29T22:10:34.895Z,6.23
2022-12-29T22:13:02.533Z,11.00
2022-12-29T22:15:34.334Z,8.83
2022-12-29T22:18:01.754Z,7.63
2022-12-29T22:20:30.623Z,12.77
2022-12-29T22:22:57.296Z,10.70
2022-12-29T22:25:23.996Z,7.40
2022-12-29T22:27:55.651Z,9.50
2022-12-29T22:30:26.297Z,10.23
2022-12-29T22:32:52.785Z,7.50
2022-12-29T22:35:19.708Z,9.60
2022-12-29T22:37:46.210Z,12.23
2022-12-29T22:40:13.018Z,10.33
2022-12-29T22:42:39.612Z,6.57
2022-12-29T22:47:33.661Z,7.90
2022-12-29T22:50:00.421Z,6.63
2022-12-29T22:52:27.139Z,6.80
2022-12-29T22:54:53.672Z,6.63
2022-12-29T22:57:20.163Z,10.27
2022-12-29T22:59:46.783Z,10.93
2022-12-29T23:02:13.469Z,10.03
2022-12-29T23:07:26.523Z,6.40
2022-12-29T23:09:53.017Z,8.00
2022-12-29T23:12:19.507Z,7.50
2022-12-29T23:14:46.019Z,10.40
2022-12-29T23:17:12.500Z,7.70
2022-12-29T23:19:39.167Z,11.90
2022-12-29T23:22:05.703Z,5.53
2022-12-29T23:24:32.412Z,12.53
2022-12-29T23:26:58.923Z,15.07
2022-12-29T23:29:25.355Z,9.47
2022-12-29T23:31:51.945Z,7.50
2022-12-29T23:34:18.436Z,8.67
2022-12-29T23:36:45.111Z,13.67
2022-12-29T23:39:23.182Z,7.00
2022-12-29T23:41:50.016Z,7.63
2022-12-29T23:44:16.484Z,5.60
2022-12-29T23:46:43.280Z,6.50
2022-12-29T23:49:09.959Z,5.43
2022-12-29T23:51:36.547Z,8.60
2022-12-29T23:54:03.222Z,8.20
2022-12-29T23:56:29.827Z,5.93
2022-12-29T23:58:56.356Z,13.87
